createdAt,value
2019-03-26T00:04:22.363Z,16.90
2019-03-26T00:09:23.456Z,16.93
2019-03-26T00:14:24.560Z,14.20
2019-03-26T00:19:25.664Z,15.10
2019-03-26T00:24:26.757Z,16.27
2019-03-26T00:29:27.869Z,14.20
2019-03-26T00:34:29.075Z,14.47
2019-03-26T00:39:30.160Z,19.57
2019-03-26T00:44:31.252Z,15.10
2019-03-26T00:49:32.381Z,15.97
2019-03-26T00:54:33.475Z,17.17
2019-03-26T00:59:34.577Z,18.33
2019-03-26T01:04:35.792Z,16.30
2019-03-26T01:09:37.024Z,14.33
2019-03-26T01:14:38.107Z,16.17
2019-03-26T01:19:39.187Z,18.23
2019-03-26T01:24:40.257Z,22.77
2019-03-26T01:29:41.339Z,20.43
2019-03-26T01:34:46.264Z,19.07
2019-03-26T01:39:45.419Z,20.20
2019-03-26T01:44:46.525Z,18.03
2019-03-26T01:49:47.640Z,17.70
2019-03-26T01:54:50.000Z,18.83
2019-03-26T01:59:53.378Z,16.73
2019-03-26T02:05:00.163Z,20.63
2019-03-26T02:09:58.706Z,20.17
2019-03-26T02:14:59.792Z,19.17
2019-03-26T02:20:00.893Z,17.80
2019-03-26T02:25:03.617Z,21.90
2019-03-26T02:30:05.241Z,21.47
2019-03-26T02:35:17.941Z,17.17
2019-03-26T02:40:09.675Z,19.80
2019-03-26T02:45:13.688Z,19.13
2019-03-26T02:50:14.917Z,20.97
2019-03-26T02:55:17.356Z,19.27
2019-03-26T03:00:18.471Z,24.20
2019-03-26T03:05:34.258Z,19.60
2019-03-26T03:10:23.719Z,18.90
2019-03-26T03:15:24.822Z,20.87
2019-03-26T03:20:25.955Z,16.93
2019-03-26T03:25:30.052Z,19.00
2019-03-26T03:30:33.946Z,18.57
2019-03-26T03:35:50.780Z,20.03
2019-03-26T03:40:38.142Z,19.80
2019-03-26T03:45:39.734Z,21.33
2019-03-26T03:50:42.150Z,21.70
2019-03-26T03:55:46.851Z,23.00
2019-03-26T04:00:48.968Z,21.63
2019-03-26T04:05:52.296Z,19.53
2019-03-26T04:10:53.587Z,20.90
2019-03-26T04:15:55.260Z,19.37
2019-03-26T04:20:56.376Z,18.80
2019-03-26T04:25:57.481Z,20.97
2019-03-26T04:30:58.594Z,18.33
2019-03-26T04:35:59.713Z,20.13
2019-03-26T04:41:08.158Z,20.00
2019-03-26T04:46:09.263Z,20.73
2019-03-26T04:51:10.484Z,20.30
2019-03-26T04:56:11.585Z,19.57
2019-03-26T05:01:12.977Z,25.70
2019-03-26T05:06:14.185Z,21.23
2019-03-26T05:11:21.624Z,21.93
2019-03-26T05:16:22.748Z,23.03
2019-03-26T05:21:23.850Z,21.47
2019-03-26T05:26:24.955Z,26.93
2019-03-26T05:31:26.087Z,21.87
2019-03-26T05:36:27.422Z,20.93
2019-03-26T05:41:28.986Z,20.30
2019-03-26T05:46:30.140Z,25.55
2019-03-26T05:51:33.248Z,21.47
2019-03-26T05:56:35.481Z,16.73
2019-03-26T06:01:36.584Z,19.83
2019-03-26T06:06:37.691Z,23.20
2019-03-26T06:11:38.784Z,21.50
2019-03-26T06:16:39.989Z,24.70
2019-03-26T06:21:41.087Z,23.97
2019-03-26T06:26:42.234Z,25.53
2019-03-26T06:31:43.343Z,25.97
2019-03-26T06:36:44.460Z,25.73
2019-03-26T06:41:45.588Z,27.23
2019-03-26T06:46:46.717Z,21.77
2019-03-26T06:51:47.843Z,22.00
2019-03-26T06:56:50.471Z,21.20
2019-03-26T07:01:51.833Z,18.67
2019-03-26T07:06:52.958Z,21.03
2019-03-26T07:11:54.315Z,20.93
2019-03-26T07:16:55.572Z,20.30
2019-03-26T07:21:56.655Z,17.50
2019-03-26T07:26:57.866Z,17.33
2019-03-26T07:31:58.959Z,16.40
2019-03-26T07:37:00.071Z,17.20
2019-03-26T07:42:01.165Z,19.70
2019-03-26T07:47:03.344Z,17.67
2019-03-26T07:52:04.496Z,13.97
2019-03-26T07:57:05.590Z,13.73
2019-03-26T08:02:06.691Z,15.73
2019-03-26T08:07:08.704Z,18.03
2019-03-26T08:12:11.219Z,15.27
2019-03-26T08:17:12.327Z,16.03
2019-03-26T08:22:13.439Z,14.63
2019-03-26T08:27:14.550Z,17.03
2019-03-26T08:32:15.864Z,18.17
2019-03-26T08:37:16.968Z,17.17
2019-03-26T08:42:18.077Z,16.73
2019-03-26T08:47:19.208Z,14.43
2019-03-26T08:52:20.320Z,15.97
2019-03-26T08:57:24.021Z,14.73
2019-03-26T09:02:25.454Z,13.73
2019-03-26T09:07:26.680Z,12.90
2019-03-26T09:12:27.992Z,14.00
2019-03-26T09:17:29.108Z,14.80
2019-03-26T09:22:30.199Z,12.77
2019-03-26T09:27:31.519Z,13.73
2019-03-26T09:32:32.826Z,8.67
2019-03-26T09:37:34.107Z,9.23
2019-03-26T09:42:36.000Z,10.40
2019-03-26T09:47:37.631Z,9.73
2019-03-26T09:52:38.760Z,9.40
2019-03-26T09:57:45.932Z,7.00
2019-03-26T10:02:47.161Z,11.00
2019-03-26T10:07:49.413Z,9.53
2019-03-26T10:12:50.634Z,8.40
2019-03-26T10:17:51.740Z,10.13
2019-03-26T10:22:52.847Z,10.23
2019-03-26T10:27:53.953Z,10.10
2019-03-26T10:32:55.153Z,7.27
2019-03-26T10:37:57.542Z,8.67
2019-03-26T10:42:59.438Z,9.60
2019-03-26T10:48:00.678Z,10.90
2019-03-26T10:53:01.822Z,10.97
2019-03-26T10:58:04.587Z,8.50
2019-03-26T11:03:06.184Z,9.87
2019-03-26T11:08:07.378Z,9.10
2019-03-26T11:13:08.461Z,7.47
2019-03-26T11:18:09.567Z,8.57
2019-03-26T11:23:10.884Z,6.83
2019-03-26T11:28:11.999Z,6.47
2019-03-26T11:33:13.102Z,5.90
2019-03-26T11:38:14.216Z,9.37
2019-03-26T11:43:16.852Z,10.57
2019-03-26T11:48:18.119Z,8.33
2019-03-26T11:53:19.312Z,7.70
2019-03-26T11:58:29.852Z,6.77
2019-03-26T12:03:25.334Z,6.73
2019-03-26T12:08:26.709Z,7.93
2019-03-26T12:13:27.787Z,7.27
2019-03-26T12:18:28.903Z,9.90
2019-03-26T12:23:32.321Z,8.23
2019-03-26T12:28:34.697Z,7.67
2019-03-26T12:33:35.863Z,7.80
2019-03-26T12:38:36.966Z,7.03
2019-03-26T12:43:38.084Z,7.47
2019-03-26T12:48:40.131Z,7.93
2019-03-26T12:53:41.291Z,5.30
2019-03-26T12:58:42.569Z,8.23
2019-03-26T13:03:43.673Z,4.80
2019-03-26T13:08:45.935Z,12.33
2019-03-26T13:13:47.370Z,7.17
2019-03-26T13:18:48.569Z,6.40
2019-03-26T13:23:49.773Z,7.90
2019-03-26T13:28:50.872Z,7.10
2019-03-26T13:33:51.969Z,11.77
2019-03-26T13:38:53.089Z,10.03
2019-03-26T13:43:55.061Z,9.90
2019-03-26T13:48:56.348Z,13.00
2019-03-26T13:53:57.475Z,11.83
2019-03-26T13:58:58.580Z,8.07
2019-03-26T14:03:59.798Z,7.23
2019-03-26T14:09:00.926Z,9.70
2019-03-26T14:14:02.732Z,8.87
2019-03-26T14:19:03.932Z,9.27
2019-03-26T14:24:05.150Z,8.23
2019-03-26T14:29:06.302Z,9.53
2019-03-26T14:34:07.394Z,7.57
2019-03-26T14:39:08.726Z,6.93
2019-03-26T14:44:09.868Z,5.97
2019-03-26T14:49:10.987Z,5.70
2019-03-26T14:54:12.119Z,7.17
2019-03-26T14:59:13.326Z,5.07
2019-03-26T15:04:14.473Z,7.83
2019-03-26T15:09:15.688Z,4.57
2019-03-26T15:14:16.883Z,4.17
2019-03-26T15:19:18.113Z,3.57
2019-03-26T15:24:19.214Z,3.90
2019-03-26T15:29:20.337Z,5.00
2019-03-26T15:34:21.451Z,3.27
2019-03-26T15:39:22.673Z,4.60
2019-03-26T15:44:25.404Z,5.83
2019-03-26T15:49:26.707Z,5.70
2019-03-26T15:54:28.041Z,4.53
2019-03-26T15:59:30.243Z,9.23
2019-03-26T16:04:31.516Z,5.37
